createdAt,value
2023-02-13T00:01:09.651Z,67.90
2023-02-13T00:03:37.912Z,67.90
2023-02-13T00:06:06.504Z,67.80
2023-02-13T00:08:34.886Z,67.80
2023-02-13T00:11:03.062Z,67.80
2023-02-13T00:13:31.322Z,67.80
2023-02-13T00:16:02.366Z,67.80
2023-02-13T00:18:34.037Z,67.80
2023-02-13T00:21:04.363Z,67.70
2023-02-13T00:23:34.368Z,67.80
2023-02-13T00:26:06.591Z,67.80
2023-02-13T00:28:35.037Z,67.90
2023-02-13T00:31:10.356Z,67.90
2023-02-13T00:33:38.804Z,68.10
2023-02-13T00:36:09.031Z,68.00
2023-02-13T00:38:38.212Z,68.00
2023-02-13T00:41:07.215Z,68.00
2023-02-13T00:43:35.978Z,68.10
2023-02-13T00:46:05.218Z,67.90
2023-02-13T00:48:35.659Z,68.00
2023-02-13T00:51:04.349Z,68.10
2023-02-13T00:53:33.299Z,68.10
2023-02-13T00:56:01.969Z,68.10
2023-02-13T00:58:30.427Z,68.20
2023-02-13T01:00:59.179Z,68.20
2023-02-13T01:03:27.937Z,68.20
2023-02-13T01:05:59.036Z,68.20
2023-02-13T01:08:28.309Z,68.20
2023-02-13T01:10:57.750Z,68.30
2023-02-13T01:13:26.472Z,68.20
2023-02-13T01:15:54.714Z,68.20
2023-02-13T01:18:22.983Z,68.20
2023-02-13T01:21:00.085Z,68.30
2023-02-13T01:23:32.251Z,68.40
2023-02-13T01:26:00.664Z,68.40
2023-02-13T01:28:29.199Z,68.30
2023-02-13T01:30:59.126Z,68.30
2023-02-13T01:33:29.684Z,68.20
2023-02-13T01:36:00.195Z,68.20
2023-02-13T01:38:28.413Z,68.10
2023-02-13T01:40:56.851Z,68.10
2023-02-13T01:43:25.888Z,68.10
2023-02-13T01:45:57.402Z,68.10
2023-02-13T01:48:28.474Z,68.20
2023-02-13T01:51:01.824Z,68.20
2023-02-13T01:53:34.532Z,68.20
2023-02-13T01:56:07.350Z,68.10
2023-02-13T01:58:38.885Z,68.10
2023-02-13T02:01:09.031Z,68.10
2023-02-13T02:03:39.663Z,68.10
2023-02-13T02:06:15.731Z,68.20
2023-02-13T02:08:44.102Z,68.40
2023-02-13T02:11:21.745Z,68.30
2023-02-13T02:13:50.556Z,68.40
2023-02-13T02:16:18.883Z,68.30
2023-02-13T02:18:47.050Z,68.40
2023-02-13T02:21:53.302Z,68.40
2023-02-13T02:24:58.861Z,68.40
2023-02-13T02:28:05.628Z,68.30
2023-02-13T02:31:06.595Z,68.30
2023-02-13T02:33:45.751Z,68.30
2023-02-13T02:36:28.361Z,68.30
2023-02-13T02:39:05.310Z,68.50
2023-02-13T02:41:43.658Z,68.50
2023-02-13T02:44:22.728Z,68.50
2023-02-13T02:47:16.689Z,68.60
2023-02-13T02:50:01.986Z,68.60
2023-02-13T02:52:43.860Z,68.50
2023-02-13T02:55:23.234Z,68.60
2023-02-13T02:58:18.839Z,68.60
2023-02-13T03:01:05.642Z,68.60
2023-02-13T03:03:53.569Z,68.60
2023-02-13T03:06:26.896Z,68.60
2023-02-13T03:09:16.182Z,68.50
2023-02-13T03:12:15.564Z,68.50
2023-02-13T03:14:44.305Z,68.40
2023-02-13T03:17:32.920Z,68.40
2023-02-13T03:20:32.631Z,68.40
2023-02-13T03:23:31.331Z,68.30
2023-02-13T03:26:33.163Z,68.40
2023-02-13T03:29:30.146Z,68.30
2023-02-13T03:32:07.056Z,68.30
2023-02-13T03:34:53.392Z,68.40
2023-02-13T03:37:46.183Z,68.40
2023-02-13T03:40:22.294Z,68.60
2023-02-13T03:42:55.524Z,68.60
2023-02-13T03:45:46.082Z,68.50
2023-02-13T03:48:50.210Z,68.50
2023-02-13T03:51:22.609Z,68.30
2023-02-13T03:53:55.736Z,69.10
2023-02-13T03:56:45.898Z,68.40
2023-02-13T03:59:21.281Z,68.40
2023-02-13T04:01:59.938Z,68.50
2023-02-13T04:04:35.970Z,68.60
2023-02-13T04:07:06.835Z,68.50
2023-02-13T04:09:38.077Z,68.50
2023-02-13T04:12:17.165Z,68.40
2023-02-13T04:14:50.219Z,68.50
2023-02-13T04:17:24.508Z,68.50
2023-02-13T04:19:52.952Z,68.60
2023-02-13T04:22:21.086Z,68.60
2023-02-13T04:24:49.584Z,68.60
2023-02-13T04:27:19.316Z,68.70
2023-02-13T04:29:47.493Z,68.70
2023-02-13T04:32:17.556Z,68.60
2023-02-13T04:34:45.719Z,68.60
2023-02-13T04:37:13.897Z,69.70
2023-02-13T04:39:42.091Z,69.70
2023-02-13T04:42:10.264Z,69.80
2023-02-13T04:44:39.791Z,69.80
2023-02-13T04:47:08.011Z,69.80
2023-02-13T04:49:36.209Z,69.80
2023-02-13T04:52:04.595Z,69.80
2023-02-13T04:54:32.741Z,69.80
2023-02-13T04:57:00.977Z,69.80
2023-02-13T04:59:29.075Z,69.90
2023-02-13T05:01:59.275Z,69.90
2023-02-13T05:04:28.835Z,69.90
2023-02-13T05:06:57.116Z,70.00
2023-02-13T05:09:25.362Z,69.90
2023-02-13T05:11:54.296Z,69.90
2023-02-13T05:14:22.819Z,70.10
2023-02-13T05:16:51.038Z,70.10
2023-02-13T05:19:20.611Z,70.00
2023-02-13T05:22:06.218Z,70.10
2023-02-13T05:24:34.402Z,70.30
2023-02-13T05:27:02.624Z,70.20
2023-02-13T05:29:30.866Z,70.10
2023-02-13T05:32:00.773Z,70.20
2023-02-13T05:34:30.712Z,70.30
2023-02-13T05:36:59.001Z,70.20
2023-02-13T05:39:27.234Z,70.30
2023-02-13T05:41:55.631Z,70.40
2023-02-13T05:44:23.899Z,70.40
2023-02-13T05:46:53.201Z,70.50
2023-02-13T05:49:22.814Z,70.40
2023-02-13T05:51:53.135Z,70.50
2023-02-13T05:54:21.386Z,70.60
2023-02-13T05:56:49.520Z,70.50
2023-02-13T05:59:17.802Z,70.60
2023-02-13T06:01:45.932Z,70.60
2023-02-13T06:04:14.256Z,70.70
2023-02-13T06:06:42.481Z,70.70
2023-02-13T06:09:12.136Z,70.80
2023-02-13T06:11:40.301Z,70.90
2023-02-13T06:14:08.529Z,71.00
2023-02-13T06:16:36.672Z,71.10
2023-02-13T06:19:04.894Z,71.00
2023-02-13T06:21:33.474Z,71.10
2023-02-13T06:24:01.654Z,71.10
2023-02-13T06:26:31.211Z,71.10
2023-02-13T06:28:59.356Z,71.20
2023-02-13T06:31:27.715Z,71.10
2023-02-13T06:33:56.020Z,71.10
2023-02-13T06:36:24.283Z,71.20
2023-02-13T06:38:52.555Z,71.30
2023-02-13T06:41:20.800Z,71.30
2023-02-13T06:43:50.301Z,71.50
2023-02-13T06:46:18.468Z,71.50
2023-02-13T06:48:46.787Z,71.50
2023-02-13T06:51:14.985Z,71.60
2023-02-13T06:53:43.244Z,71.50
2023-02-13T06:56:11.873Z,71.60
2023-02-13T06:58:40.160Z,71.60
2023-02-13T07:01:09.820Z,72.40
2023-02-13T07:03:37.973Z,71.70
2023-02-13T07:06:06.473Z,71.70
2023-02-13T07:08:34.638Z,71.70
2023-02-13T07:11:02.870Z,71.60
2023-02-13T07:13:31.045Z,71.70
2023-02-13T07:16:02.216Z,71.20
2023-02-13T07:18:31.937Z,71.90
2023-02-13T07:21:00.223Z,71.90
2023-02-13T07:23:28.484Z,71.80
2023-02-13T07:25:59.528Z,71.90
2023-02-13T07:28:28.144Z,71.90
2023-02-13T07:30:56.935Z,71.80
2023-02-13T07:33:25.699Z,71.80
2023-02-13T07:35:55.249Z,72.00
2023-02-13T07:38:23.440Z,72.00
2023-02-13T07:40:51.625Z,72.00
2023-02-13T07:43:19.828Z,72.00
2023-02-13T07:45:48.052Z,71.90
2023-02-13T07:48:16.252Z,71.90
2023-02-13T07:50:44.385Z,72.10
2023-02-13T07:53:13.914Z,72.10
2023-02-13T07:55:42.098Z,72.10
2023-02-13T07:58:10.200Z,72.00
2023-02-13T08:00:38.640Z,72.00
2023-02-13T08:03:06.825Z,72.00
2023-02-13T08:05:35.361Z,72.00
2023-02-13T08:08:04.108Z,72.00
2023-02-13T08:10:50.966Z,72.10
2023-02-13T08:13:19.602Z,72.10
2023-02-13T08:15:48.102Z,71.90
2023-02-13T08:18:18.812Z,72.00
2023-02-13T08:20:48.518Z,72.00
2023-02-13T08:23:16.851Z,71.80
2023-02-13T08:25:47.719Z,72.30
2023-02-13T08:28:16.295Z,71.70
2023-02-13T08:30:44.612Z,71.70
2023-02-13T08:33:12.843Z,71.70
2023-02-13T08:35:40.992Z,71.40
2023-02-13T08:38:10.264Z,71.20
2023-02-13T08:40:38.801Z,70.90
2023-02-13T08:43:08.529Z,70.60
2023-02-13T08:45:37.519Z,70.30
2023-02-13T08:48:07.533Z,70.30
2023-02-13T08:50:37.108Z,70.50
2023-02-13T08:53:05.798Z,70.10
2023-02-13T08:55:34.049Z,70.40
2023-02-13T08:58:02.941Z,70.00
2023-02-13T09:00:32.906Z,70.50
2023-02-13T09:03:05.051Z,69.80
2023-02-13T09:05:33.328Z,69.50
2023-02-13T09:08:03.613Z,69.50
2023-02-13T09:10:31.937Z,69.30
2023-02-13T09:13:01.267Z,69.20
2023-02-13T09:15:29.563Z,69.70
2023-02-13T09:17:59.204Z,68.80
2023-02-13T09:20:27.669Z,68.60
2023-02-13T09:22:57.050Z,68.40
2023-02-13T09:25:25.471Z,68.40
2023-02-13T09:27:53.679Z,68.20
2023-02-13T09:30:24.244Z,66.90
2023-02-13T09:32:53.516Z,66.80
2023-02-13T09:35:23.427Z,66.70
2023-02-13T09:37:51.726Z,66.40
2023-02-13T09:40:24.869Z,66.20
2023-02-13T09:43:06.575Z,66.00
2023-02-13T09:45:36.375Z,66.00
2023-02-13T09:48:06.197Z,66.10
2023-02-13T09:50:36.172Z,66.00
2023-02-13T09:53:05.711Z,65.80
2023-02-13T09:55:41.733Z,65.70
2023-02-13T09:58:16.600Z,65.70
2023-02-13T10:00:50.937Z,65.60
2023-02-13T10:03:31.263Z,65.40
2023-02-13T10:06:09.573Z,65.20
2023-02-13T10:08:50.828Z,65.00
2023-02-13T10:12:32.928Z,64.90
2023-02-13T10:15:59.277Z,64.60
2023-02-13T10:18:34.237Z,64.30
2023-02-13T10:21:06.516Z,64.40
2023-02-13T10:23:40.484Z,64.30
2023-02-13T10:26:13.230Z,64.10
2023-02-13T10:28:45.789Z,64.10
2023-02-13T10:31:16.748Z,64.00
2023-02-13T10:33:50.324Z,63.70
2023-02-13T10:36:24.229Z,63.40
2023-02-13T10:39:00.877Z,63.10
2023-02-13T10:41:40.948Z,63.10
2023-02-13T10:44:40.042Z,62.90
2023-02-13T10:47:19.732Z,62.60
2023-02-13T10:50:03.392Z,62.40
2023-02-13T10:52:45.496Z,62.20
2023-02-13T10:55:25.786Z,62.20
2023-02-13T10:58:10.377Z,62.00
2023-02-13T11:00:47.769Z,61.80
2023-02-13T11:03:22.280Z,61.70
2023-02-13T11:05:51.829Z,62.20
2023-02-13T11:08:23.987Z,61.40
2023-02-13T11:10:53.346Z,60.90
2023-02-13T11:13:24.087Z,60.70
2023-02-13T11:16:01.741Z,60.40
2023-02-13T11:18:34.167Z,60.90
2023-02-13T11:21:08.977Z,60.00
2023-02-13T11:23:45.689Z,59.90
2023-02-13T11:26:16.525Z,59.80
2023-02-13T11:28:51.701Z,59.70
2023-02-13T11:31:28.697Z,59.50
2023-02-13T11:33:59.036Z,59.40
2023-02-13T11:36:29.352Z,59.20
2023-02-13T11:39:05.495Z,58.90
2023-02-13T11:41:41.014Z,58.70
2023-02-13T11:44:23.089Z,58.70
2023-02-13T11:46:53.278Z,58.40
2023-02-13T11:49:24.016Z,59.00
2023-02-13T11:51:54.132Z,58.30
2023-02-13T11:54:30.240Z,58.10
2023-02-13T11:57:07.327Z,57.90
2023-02-13T11:59:42.604Z,57.80
2023-02-13T12:02:17.581Z,57.70
2023-02-13T12:04:46.640Z,57.70
2023-02-13T12:07:18.377Z,57.60
2023-02-13T12:09:51.617Z,57.50
2023-02-13T12:12:26.712Z,57.30
2023-02-13T12:14:56.642Z,57.20
2023-02-13T12:17:32.144Z,57.00
2023-02-13T12:20:01.435Z,56.80
2023-02-13T12:22:37.979Z,56.70
2023-02-13T12:25:32.528Z,56.50
2023-02-13T12:28:12.300Z,56.30
2023-02-13T12:31:09.263Z,56.40
2023-02-13T12:34:00.625Z,56.20
2023-02-13T12:36:33.721Z,56.30
2023-02-13T12:39:18.247Z,56.20
2023-02-13T12:41:56.351Z,55.90
2023-02-13T12:44:42.915Z,55.80
2023-02-13T12:47:17.559Z,55.60
2023-02-13T12:50:04.357Z,55.70
2023-02-13T12:52:44.374Z,55.50
2023-02-13T12:55:34.966Z,55.50
2023-02-13T12:58:27.037Z,55.10
2023-02-13T13:00:59.728Z,54.90
2023-02-13T13:03:40.489Z,54.90
2023-02-13T13:06:27.118Z,54.50
2023-02-13T13:09:18.404Z,54.30
2023-02-13T13:12:11.820Z,54.30
2023-02-13T13:14:49.772Z,54.30
2023-02-13T13:17:29.017Z,54.30
2023-02-13T13:20:05.167Z,54.00
2023-02-13T13:22:35.947Z,53.90
2023-02-13T13:25:19.357Z,53.80
2023-02-13T13:27:53.102Z,53.70
2023-02-13T13:30:25.553Z,53.70
2023-02-13T13:33:03.311Z,53.40
2023-02-13T13:35:32.434Z,53.20
2023-02-13T13:38:07.910Z,53.20
2023-02-13T13:40:44.426Z,53.00
2023-02-13T13:43:22.465Z,52.60
2023-02-13T13:46:06.748Z,52.50
2023-02-13T13:48:56.464Z,52.30
2023-02-13T13:51:25.418Z,52.30
2023-02-13T13:54:19.528Z,52.20
2023-02-13T13:57:11.861Z,52.00
2023-02-13T14:00:28.586Z,51.90
2023-02-13T14:03:34.501Z,51.70
2023-02-13T14:06:05.951Z,51.50
2023-02-13T14:09:22.179Z,51.60
2023-02-13T14:11:50.555Z,50.50
2023-02-13T14:14:53.002Z,50.80
2023-02-13T14:17:54.476Z,50.10
2023-02-13T14:20:34.828Z,50.20
2023-02-13T14:23:23.621Z,50.30
2023-02-13T14:25:52.439Z,49.70
2023-02-13T14:28:24.599Z,50.40
2023-02-13T14:30:56.484Z,49.70
2023-02-13T14:33:29.024Z,49.70
2023-02-13T14:36:05.404Z,49.60
2023-02-13T14:38:34.924Z,49.20
2023-02-13T14:41:04.143Z,49.20
2023-02-13T14:43:37.930Z,48.80
2023-02-13T14:46:18.238Z,48.50
2023-02-13T14:48:53.839Z,47.80
2023-02-13T14:51:31.343Z,47.60
2023-02-13T14:54:05.715Z,47.10
2023-02-13T14:56:34.518Z,46.60
2023-02-13T14:59:12.797Z,46.50
2023-02-13T15:01:48.274Z,45.80
2023-02-13T15:04:21.806Z,45.40
2023-02-13T15:06:52.193Z,45.00
2023-02-13T15:09:32.785Z,44.40
2023-02-13T15:12:01.570Z,43.70
2023-02-13T15:14:34.788Z,43.80
2023-02-13T15:17:14.322Z,43.10
2023-02-13T15:19:46.528Z,42.70
2023-02-13T15:22:21.918Z,42.60
2023-02-13T15:24:51.508Z,42.30
2023-02-13T15:27:23.708Z,42.50
2023-02-13T15:29:57.560Z,42.40
2023-02-13T15:32:32.128Z,42.10
2023-02-13T15:35:00.874Z,41.90
2023-02-13T15:37:32.350Z,42.20
2023-02-13T15:40:16.265Z,41.90
2023-02-13T15:42:44.461Z,41.20
2023-02-13T15:45:17.405Z,41.90
2023-02-13T15:47:46.563Z,41.70
2023-02-13T15:50:18.423Z,41.90
2023-02-13T15:52:48.617Z,42.10
2023-02-13T15:55:22.566Z,42.40
2023-02-13T15:57:52.417Z,42.60
2023-02-13T16:00:25.985Z,42.90
2023-02-13T16:02:55.881Z,43.20
2023-02-13T16:05:39.483Z,43.50
2023-02-13T16:08:30.544Z,44.00
2023-02-13T16:11:26.154Z,44.20
2023-02-13T16:14:05.741Z,44.40
2023-02-13T16:16:37.440Z,44.70
2023-02-13T16:19:05.973Z,44.70
2023-02-13T16:21:35.840Z,44.90
2023-02-13T16:24:08.351Z,45.00
2023-02-13T16:26:39.098Z,45.10
2023-02-13T16:29:11.500Z,45.40
2023-02-13T16:31:40.751Z,45.50
2023-02-13T16:34:16.610Z,45.60
2023-02-13T16:36:44.778Z,45.70
2023-02-13T16:39:21.673Z,46.00
2023-02-13T16:41:51.452Z,46.20
2023-02-13T16:44:28.012Z,46.40
2023-02-13T16:47:01.858Z,46.50
2023-02-13T16:49:32.666Z,46.80
2023-02-13T16:52:12.550Z,47.00
2023-02-13T16:54:49.900Z,47.10
2023-02-13T16:57:25.884Z,47.20
2023-02-13T17:00:08.512Z,47.40
2023-02-13T17:02:38.169Z,47.70
2023-02-13T17:05:21.480Z,47.90
2023-02-13T17:07:51.870Z,48.00
2023-02-13T17:10:24.359Z,48.20
2023-02-13T17:12:52.730Z,48.40
2023-02-13T17:15:22.871Z,48.60
2023-02-13T17:17:51.609Z,48.70
2023-02-13T17:20:21.539Z,48.80
2023-02-13T17:22:51.563Z,49.00
2023-02-13T17:25:23.331Z,49.10
2023-02-13T17:27:52.540Z,49.30
2023-02-13T17:30:22.420Z,49.50
2023-02-13T17:32:59.778Z,49.50
2023-02-13T17:35:27.961Z,49.70
2023-02-13T17:37:56.160Z,49.80
2023-02-13T17:40:29.609Z,49.90
2023-02-13T17:42:59.629Z,50.10
2023-02-13T17:45:30.341Z,50.30
2023-02-13T17:47:58.724Z,50.30
2023-02-13T17:50:28.066Z,50.50
2023-02-13T17:52:56.892Z,50.70
2023-02-13T17:55:28.377Z,51.50
2023-02-13T17:57:57.589Z,51.00
2023-02-13T18:00:27.962Z,51.20
2023-02-13T18:02:57.170Z,51.30
2023-02-13T18:05:25.418Z,51.40
2023-02-13T18:07:53.516Z,51.60
2023-02-13T18:10:23.794Z,51.80
2023-02-13T18:12:55.314Z,51.90
2023-02-13T18:15:24.260Z,52.00
2023-02-13T18:17:52.429Z,52.10
2023-02-13T18:20:22.293Z,52.30
2023-02-13T18:22:51.113Z,52.50
2023-02-13T18:25:20.870Z,52.60
2023-02-13T18:27:49.436Z,52.80
2023-02-13T18:30:21.402Z,52.90
2023-02-13T18:32:53.576Z,53.10
2023-02-13T18:35:22.178Z,53.10
2023-02-13T18:37:50.359Z,53.20
2023-02-13T18:40:18.709Z,53.20
2023-02-13T18:42:46.878Z,53.30
2023-02-13T18:45:15.145Z,53.50
2023-02-13T18:47:45.099Z,53.50
2023-02-13T18:50:13.537Z,53.60
2023-02-13T18:52:41.769Z,53.80
2023-02-13T18:55:10.226Z,53.80
2023-02-13T18:57:43.228Z,54.00
2023-02-13T19:00:14.272Z,53.90
2023-02-13T19:02:43.839Z,54.00
2023-02-13T19:05:12.162Z,53.90
2023-02-13T19:07:40.494Z,54.00
2023-02-13T19:10:09.392Z,53.90
2023-02-13T19:12:38.056Z,54.00
2023-02-13T19:15:09.163Z,54.00
2023-02-13T19:17:39.294Z,54.10
2023-02-13T19:20:10.260Z,54.20
2023-02-13T19:22:38.432Z,54.30
2023-02-13T19:25:07.154Z,54.30
2023-02-13T19:27:37.466Z,54.30
2023-02-13T19:30:09.353Z,54.40
2023-02-13T19:32:37.603Z,54.40
2023-02-13T19:35:06.644Z,54.50
2023-02-13T19:37:43.802Z,54.50
2023-02-13T19:40:13.939Z,54.60
2023-02-13T19:42:42.428Z,54.60
2023-02-13T19:45:11.551Z,54.70
2023-02-13T19:47:39.746Z,54.70
2023-02-13T19:50:09.152Z,54.80
2023-02-13T19:52:38.834Z,54.80
2023-02-13T19:55:07.585Z,54.90
2023-02-13T19:57:35.882Z,55.00
2023-02-13T20:00:04.958Z,55.00
2023-02-13T20:02:33.345Z,55.00
2023-02-13T20:05:06.910Z,55.20
2023-02-13T20:07:35.090Z,55.20
2023-02-13T20:10:05.488Z,55.30
2023-02-13T20:12:33.901Z,55.10
2023-02-13T20:15:02.503Z,55.20
2023-02-13T20:17:30.781Z,55.30
2023-02-13T20:19:58.973Z,55.20
2023-02-13T20:22:27.270Z,55.20
2023-02-13T20:24:55.629Z,55.20
2023-02-13T20:27:25.168Z,55.10
2023-02-13T20:29:59.052Z,55.10
2023-02-13T20:32:34.849Z,55.00
2023-02-13T20:35:03.138Z,55.00
2023-02-13T20:37:31.763Z,55.10
2023-02-13T20:40:00.033Z,55.00
2023-02-13T20:42:29.678Z,55.00
2023-02-13T20:44:57.841Z,54.90
2023-02-13T20:47:26.032Z,54.90
2023-02-13T20:49:54.288Z,55.00
2023-02-13T20:52:22.451Z,55.00
2023-02-13T20:54:50.655Z,55.10
2023-02-13T20:57:19.159Z,55.10
2023-02-13T20:59:48.756Z,55.10
2023-02-13T21:02:19.520Z,55.20
2023-02-13T21:04:48.064Z,55.30
2023-02-13T21:07:16.182Z,55.40
2023-02-13T21:09:44.428Z,55.40
2023-02-13T21:12:12.951Z,55.40
2023-02-13T21:14:41.221Z,55.50
2023-02-13T21:17:10.828Z,55.50
2023-02-13T21:19:39.510Z,55.60
2023-02-13T21:22:14.172Z,55.60
2023-02-13T21:24:43.879Z,55.80
2023-02-13T21:27:12.379Z,55.80
2023-02-13T21:29:40.610Z,55.80
2023-02-13T21:32:10.603Z,56.00
2023-02-13T21:34:38.908Z,56.00
2023-02-13T21:37:07.434Z,56.10
2023-02-13T21:39:36.319Z,56.10
2023-02-13T21:42:05.468Z,56.20
2023-02-13T21:44:33.784Z,56.20
2023-02-13T21:47:02.137Z,56.20
2023-02-13T21:49:31.725Z,56.30
2023-02-13T21:51:59.993Z,56.30
2023-02-13T21:54:28.493Z,56.40
2023-02-13T21:56:56.707Z,56.50
2023-02-13T21:59:25.075Z,56.50
2023-02-13T22:01:54.719Z,57.40
2023-02-13T22:04:23.194Z,57.50
2023-02-13T22:06:53.627Z,57.50
2023-02-13T22:09:23.362Z,57.70
2023-02-13T22:11:53.512Z,57.70
2023-02-13T22:14:22.422Z,57.70
2023-02-13T22:16:51.850Z,57.70
2023-02-13T22:19:21.227Z,57.80
2023-02-13T22:21:49.465Z,57.90
2023-02-13T22:24:19.161Z,57.90
2023-02-13T22:26:47.416Z,58.00
2023-02-13T22:29:18.382Z,58.10
2023-02-13T22:31:47.561Z,58.20
2023-02-13T22:34:16.415Z,58.20
2023-02-13T22:36:44.786Z,58.50
2023-02-13T22:39:13.622Z,58.40
2023-02-13T22:41:45.460Z,58.50
2023-02-13T22:44:13.831Z,58.80
2023-02-13T22:46:42.193Z,58.70
2023-02-13T22:49:10.440Z,58.70
2023-02-13T22:51:38.764Z,58.80
2023-02-13T22:54:07.715Z,58.90
2023-02-13T22:56:36.380Z,59.00
2023-02-13T22:59:06.033Z,59.10
2023-02-13T23:01:34.310Z,59.10
2023-02-13T23:04:02.622Z,59.00
2023-02-13T23:06:30.894Z,59.10
2023-02-13T23:08:59.109Z,59.10
2023-02-13T23:11:47.188Z,59.20
2023-02-13T23:14:17.264Z,59.30
2023-02-13T23:17:02.959Z,59.40
2023-02-13T23:19:31.539Z,59.40
2023-02-13T23:22:00.132Z,59.40
2023-02-13T23:24:28.416Z,59.50
2023-02-13T23:26:56.710Z,59.50
2023-02-13T23:29:26.523Z,59.60
2023-02-13T23:31:54.952Z,59.70
2023-02-13T23:34:23.848Z,59.80
2023-02-13T23:36:52.133Z,59.90
2023-02-13T23:39:21.096Z,59.90
2023-02-13T23:41:49.314Z,59.90
2023-02-13T23:44:17.777Z,60.00
2023-02-13T23:46:47.389Z,59.90
2023-02-13T23:49:15.841Z,60.00
2023-02-13T23:51:44.086Z,60.10
2023-02-13T23:54:15.859Z,60.20
2023-02-13T23:56:44.131Z,60.30
2023-02-13T23:59:12.763Z,60.40
